Time,TemperatureF,DewpointF,PressureIn,WindDirection,WindDirectionDegrees,WindSpeedMPH,WindSpeedGustMPH,Humidity,HourlyPrecipIn,Conditions,Clouds,dailyrainin,SoftwareType,DateUTC
2013-02-15 00:01:00,29.0,25.0,-100.00,North,-999,-999.0,-999.0,83,-99.99,,,-99.99,,2013-02-15 08:01:00,
2013-02-15 00:11:00,29.0,25.0,-100.00,North,-999,-999.0,-999.0,83,-99.99,,,-99.99,,2013-02-15 08:11:00,
2013-02-15 00:21:00,37.0,27.0,-100.00,North,-999,-999.0,-999.0,66,-99.99,,,-99.99,,2013-02-15 08:21:00,
2013-02-15 00:31:00,37.0,27.0,-100.00,North,-999,-999.0,-999.0,66,-99.99,,,-99.99,,2013-02-15 08:31:00,
2013-02-15 00:42:00,37.0,27.0,-100.00,North,-999,-999.0,-999.0,66,-99.99,,,-99.99,,2013-02-15 08:42:00,
2013-02-15 00:53:00,37.0,27.0,-100.00,North,-999,-999.0,-999.0,66,-99.99,,,-99.99,,2013-02-15 08:53:00,
2013-02-15 01:01:00,55.0,26.0,-100.00,North,-999,-999.0,-999.0,33,-99.99,,,-99.99,,2013-02-15 09:01:00,
2013-02-15 01:31:00,54.0,26.0,-100.00,North,-999,-999.0,-999.0,34,-99.99,,,-99.99,,2013-02-15 09:31:00,
2013-02-15 01:42:00,54.0,26.0,-100.00,North,-999,-999.0,-999.0,34,-99.99,,,-99.99,,2013-02-15 09:42:00,
2013-02-15 01:52:00,54.0,26.0,-100.00,North,-999,-999.0,-999.0,34,-99.99,,,-99.99,,2013-02-15 09:52:00,
2013-02-15 02:01:00,47.0,26.0,-100.00,North,-999,-999.0,-999.0,43,-99.99,,,-99.99,,2013-02-15 10:01:00,
2013-02-15 02:11:00,47.0,26.0,-100.00,North,-999,-999.0,-999.0,43,-99.99,,,-99.99,,2013-02-15 10:11:00,
2013-02-15 02:21:00,47.0,26.0,-100.00,North,-999,-999.0,-999.0,43,-99.99,,,-99.99,,2013-02-15 10:21:00,
2013-02-15 02:31:00,40.0,26.0,-100.00,North,-999,-999.0,-999.0,57,-99.99,,,-99.99,,2013-02-15 10:31:00,
2013-02-15 02:42:00,40.0,26.0,-100.00,North,-999,-999.0,-999.0,57,-99.99,,,-99.99,,2013-02-15 10:42:00,
2013-02-15 02:52:00,36.0,26.0,-100.00,North,-999,-999.0,-999.0,67,-99.99,,,-99.99,,2013-02-15 10:52:00,
2013-02-15 03:01:00,36.0,26.0,-100.00,North,-999,-999.0,-999.0,67,-99.99,,,-99.99,,2013-02-15 11:01:00,
2013-02-15 03:11:00,36.0,26.0,-100.00,North,-999,-999.0,-999.0,67,-99.99,,,-99.99,,2013-02-15 11:11:00,
2013-02-15 03:22:00,36.0,26.0,-100.00,North,-999,-999.0,-999.0,67,-99.99,,,-99.99,,2013-02-15 11:22:00,
2013-02-15 03:31:00,38.0,27.0,-100.00,North,-999,-999.0,-999.0,63,-99.99,,,-99.99,,2013-02-15 11:31:00,
2013-02-15 03:42:00,38.0,27.0,-100.00,North,-999,-999.0,-999.0,63,-99.99,,,-99.99,,2013-02-15 11:42:00,
2013-02-15 03:52:00,38.0,27.0,-100.00,North,-999,-999.0,-999.0,63,-99.99,,,-99.99,,2013-02-15 11:52:00,
2013-02-15 04:01:00,50.0,26.0,-100.00,North,-999,-999.0,-999.0,39,-99.99,,,-99.99,,2013-02-15 12:01:00,
2013-02-15 04:11:00,50.0,26.0,-100.00,North,-999,-999.0,-999.0,39,-99.99,,,-99.99,,2013-02-15 12:11:00,
2013-02-15 04:21:00,50.0,26.0,-100.00,North,-999,-999.0,-999.0,39,-99.99,,,-99.99,,2013-02-15 12:21:00,
2013-02-15 04:31:00,50.0,26.0,-100.00,North,-999,-999.0,-999.0,39,-99.99,,,-99.99,,2013-02-15 12:31:00,
2013-02-15 05:02:00,51.0,25.0,-100.00,North,-999,-999.0,-999.0,36,-99.99,,,-99.99,,2013-02-15 13:02:00,
2013-02-15 05:11:00,51.0,25.0,-100.00,North,-999,-999.0,-999.0,36,-99.99,,,-99.99,,2013-02-15 13:11:00,
2013-02-15 05:21:00,51.0,25.0,-100.00,North,-999,-999.0,-999.0,36,-99.99,,,-99.99,,2013-02-15 13:21:00,
2013-02-15 05:31:00,53.0,25.0,-100.00,North,-999,-999.0,-999.0,34,-99.99,,,-99.99,,2013-02-15 13:31:00,
2013-02-15 05:42:00,53.0,25.0,-100.00,North,-999,-999.0,-999.0,34,-99.99,,,-99.99,,2013-02-15 13:42:00,
2013-02-15 05:52:00,53.0,25.0,-100.00,North,-999,-999.0,-999.0,34,-99.99,,,-99.99,,2013-02-15 13:52:00,
2013-02-15 06:01:00,53.0,25.0,-100.00,North,-999,-999.0,-999.0,34,-99.99,,,-99.99,,2013-02-15 14:01:00,
2013-02-15 06:11:00,53.0,25.0,-100.00,North,-999,-999.0,-999.0,34,-99.99,,,-99.99,,2013-02-15 14:11:00,
2013-02-15 06:21:00,53.0,25.0,-100.00,North,-999,-999.0,-999.0,34,-99.99,,,-99.99,,2013-02-15 14:21:00,
2013-02-15 06:32:00,53.0,25.0,-100.00,North,-999,-999.0,-999.0,33,-99.99,,,-99.99,,2013-02-15 14:32:00,
2013-02-15 06:42:00,53.0,25.0,-100.00,North,-999,-999.0,-999.0,33,-99.99,,,-99.99,,2013-02-15 14:42:00,
2013-02-15 06:52:00,53.0,25.0,-100.00,North,-999,-999.0,-999.0,33,-99.99,,,-99.99,,2013-02-15 14:52:00,
2013-02-15 07:01:00,53.0,25.0,-100.00,North,-999,-999.0,-999.0,33,-99.99,,,-99.99,,2013-02-15 15:01:00,
2013-02-15 07:32:00,53.0,24.0,-100.00,North,-999,-999.0,-999.0,32,-99.99,,,-99.99,,2013-02-15 15:32:00,
2013-02-15 07:42:00,53.0,24.0,-100.00,North,-999,-999.0,-999.0,32,-99.99,,,-99.99,,2013-02-15 15:42:00,
2013-02-15 07:52:00,53.0,24.0,-100.00,North,-999,-999.0,-999.0,32,-99.99,,,-99.99,,2013-02-15 15:52:00,
2013-02-15 08:01:00,53.0,24.0,-100.00,North,-999,-999.0,-999.0,32,-99.99,,,-99.99,,2013-02-15 16:01:00,
2013-02-15 08:11:00,53.0,24.0,-100.00,North,-999,-999.0,-999.0,32,-99.99,,,-99.99,,2013-02-15 16:11:00,
2013-02-15 08:22:00,53.0,24.0,-100.00,North,-999,-999.0,-999.0,32,-99.99,,,-99.99,,2013-02-15 16:22:00,
2013-02-15 08:31:00,53.0,24.0,-100.00,North,-999,-999.0,-999.0,32,-99.99,,,-99.99,,2013-02-15 16:31:00,
2013-02-15 08:52:00,60.0,24.0,-100.00,North,-999,-999.0,-999.0,25,-99.99,,,-99.99,,2013-02-15 16:52:00,
2013-02-15 09:01:00,60.0,24.0,-100.00,North,-999,-999.0,-999.0,25,-99.99,,,-99.99,,2013-02-15 17:01:00,
2013-02-15 09:11:00,60.0,24.0,-100.00,North,-999,-999.0,-999.0,25,-99.99,,,-99.99,,2013-02-15 17:11:00,
2013-02-15 09:21:00,60.0,24.0,-100.00,North,-999,-999.0,-999.0,25,-99.99,,,-99.99,,2013-02-15 17:21:00,
2013-02-15 09:31:00,61.0,22.0,-100.00,North,-999,-999.0,-999.0,22,-99.99,,,-99.99,,2013-02-15 17:31:00,
2013-02-15 09:42:00,61.0,22.0,-100.00,North,-999,-999.0,-999.0,22,-99.99,,,-99.99,,2013-02-15 17:42:00,
2013-02-15 09:52:00,61.0,22.0,-100.00,North,-999,-999.0,-999.0,22,-99.99,,,-99.99,,2013-02-15 17:52:00,
2013-02-15 10:01:00,61.0,22.0,-100.00,North,-999,-999.0,-999.0,22,-99.99,,,-99.99,,2013-02-15 18:01:00,
2013-02-15 10:32:00,64.0,20.0,-100.00,North,-999,-999.0,-999.0,18,-99.99,,,-99.99,,2013-02-15 18:32:00,
2013-02-15 10:42:00,64.0,20.0,-100.00,North,-999,-999.0,-999.0,18,-99.99,,,-99.99,,2013-02-15 18:42:00,
2013-02-15 10:52:00,64.0,20.0,-100.00,North,-999,-999.0,-999.0,18,-99.99,,,-99.99,,2013-02-15 18:52:00,
2013-02-15 11:01:00,64.0,20.0,-100.00,North,-999,-999.0,-999.0,18,-99.99,,,-99.99,,2013-02-15 19:01:00,
2013-02-15 11:11:00,64.0,20.0,-100.00,North,-999,-999.0,-999.0,18,-99.99,,,-99.99,,2013-02-15 19:11:00,
2013-02-15 11:21:00,64.0,20.0,-100.00,North,-999,-999.0,-999.0,18,-99.99,,,-99.99,,2013-02-15 19:21:00,
2013-02-15 11:31:00,65.0,20.0,-100.00,North,-999,-999.0,-999.0,18,-99.99,,,-99.99,,2013-02-15 19:31:00,
2013-02-15 11:42:00,65.0,20.0,-100.00,North,-999,-999.0,-999.0,18,-99.99,,,-99.99,,2013-02-15 19:42:00,
2013-02-15 11:52:00,65.0,20.0,-100.00,North,-999,-999.0,-999.0,18,-99.99,,,-99.99,,2013-02-15 19:52:00,
2013-02-15 12:01:00,65.0,20.0,-100.00,North,-999,-999.0,-999.0,18,-99.99,,,-99.99,,2013-02-15 20:01:00,
2013-02-15 12:32:00,67.0,21.0,-100.00,North,-999,-999.0,-999.0,17,-99.99,,,-99.99,,2013-02-15 20:32:00,
2013-02-15 12:42:00,67.0,21.0,-100.00,North,-999,-999.0,-999.0,17,-99.99,,,-99.99,,2013-02-15 20:42:00,
2013-02-15 12:52:00,69.0,18.0,-100.00,North,-999,-999.0,-999.0,14,-99.99,,,-99.99,,2013-02-15 20:52:00,
2013-02-15 13:01:00,69.0,18.0,-100.00,North,-999,-999.0,-999.0,14,-99.99,,,-99.99,,2013-02-15 21:01:00,
2013-02-15 13:11:00,69.0,18.0,-100.00,North,-999,-999.0,-999.0,14,-99.99,,,-99.99,,2013-02-15 21:11:00,
2013-02-15 13:21:00,69.0,18.0,-100.00,North,-999,-999.0,-999.0,14,-99.99,,,-99.99,,2013-02-15 21:21:00,
2013-02-15 13:31:00,69.0,19.0,-100.00,North,-999,-999.0,-999.0,15,-99.99,,,-99.99,,2013-02-15 21:31:00,
2013-02-15 13:42:00,69.0,19.0,-100.00,North,-999,-999.0,-999.0,15,-99.99,,,-99.99,,2013-02-15 21:42:00,
2013-02-15 13:52:00,69.0,19.0,-100.00,North,-999,-999.0,-999.0,15,-99.99,,,-99.99,,2013-02-15 21:52:00,
2013-02-15 14:01:00,71.0,19.0,-100.00,North,-999,-999.0,-999.0,14,-99.99,,,-99.99,,2013-02-15 22:01:00,
2013-02-15 14:11:00,71.0,19.0,-100.00,North,-999,-999.0,-999.0,14,-99.99,,,-99.99,,2013-02-15 22:11:00,
2013-02-15 14:21:00,71.0,19.0,-100.00,North,-999,-999.0,-999.0,14,-99.99,,,-99.99,,2013-02-15 22:21:00,
2013-02-15 14:31:00,71.0,19.0,-100.00,North,-999,-999.0,-999.0,14,-99.99,,,-99.99,,2013-02-15 22:31:00,
2013-02-15 14:52:00,69.0,19.0,-100.00,North,-999,-999.0,-999.0,15,-99.99,,,-99.99,,2013-02-15 22:52:00,
2013-02-15 15:02:00,69.0,19.0,-100.00,North,-999,-999.0,-999.0,15,-99.99,,,-99.99,,2013-02-15 23:02:00,
2013-02-15 15:11:00,69.0,19.0,-100.00,North,-999,-999.0,-999.0,15,-99.99,,,-99.99,,2013-02-15 23:11:00,
2013-02-15 15:21:00,69.0,19.0,-100.00,North,-999,-999.0,-999.0,15,-99.99,,,-99.99,,2013-02-15 23:21:00,
2013-02-15 15:31:00,69.0,16.0,-100.00,North,-999,-999.0,-999.0,13,-99.99,,,-99.99,,2013-02-15 23:31:00,
2013-02-15 15:42:00,69.0,16.0,-100.00,North,-999,-999.0,-999.0,13,-99.99,,,-99.99,,2013-02-15 23:42:00,
2013-02-15 15:52:00,69.0,16.0,-100.00,North,-999,-999.0,-999.0,13,-99.99,,,-99.99,,2013-02-15 23:52:00,
2013-02-15 16:01:00,71.0,19.0,-100.00,North,-999,-999.0,-999.0,14,-99.99,,,-99.99,,2013-02-16 00:01:00,
2013-02-15 16:11:00,71.0,19.0,-100.00,North,-999,-999.0,-999.0,14,-99.99,,,-99.99,,2013-02-16 00:11:00,
2013-02-15 16:21:00,69.0,18.0,-100.00,North,-999,-999.0,-999.0,14,-99.99,,,-99.99,,2013-02-16 00:21:00,
2013-02-15 16:31:00,69.0,18.0,-100.00,North,-999,-999.0,-999.0,14,-99.99,,,-99.99,,2013-02-16 00:31:00,
2013-02-15 16:42:00,69.0,18.0,-100.00,North,-999,-999.0,-999.0,14,-99.99,,,-99.99,,2013-02-16 00:42:00,
2013-02-15 16:52:00,69.0,18.0,-100.00,North,-999,-999.0,-999.0,14,-99.99,,,-99.99,,2013-02-16 00:52:00,
2013-02-15 17:02:00,67.0,16.0,-100.00,North,-999,-999.0,-999.0,14,-99.99,,,-99.99,,2013-02-16 01:02:00,
2013-02-15 17:11:00,67.0,16.0,-100.00,North,-999,-999.0,-999.0,14,-99.99,,,-99.99,,2013-02-16 01:11:00,
2013-02-15 17:21:00,67.0,16.0,-100.00,North,-999,-999.0,-999.0,14,-99.99,,,-99.99,,2013-02-16 01:21:00,
2013-02-15 17:31:00,67.0,16.0,-100.00,North,-999,-999.0,-999.0,14,-99.99,,,-99.99,,2013-02-16 01:31:00,
2013-02-15 18:01:00,60.0,16.0,-100.00,North,-999,-999.0,-999.0,18,-99.99,,,-99.99,,2013-02-16 02:01:00,
2013-02-15 18:11:00,60.0,16.0,-100.00,North,-999,-999.0,-999.0,18,-99.99,,,-99.99,,2013-02-16 02:11:00,
2013-02-15 18:21:00,57.0,17.0,-100.00,North,-999,-999.0,-999.0,21,-99.99,,,-99.99,,2013-02-16 02:21:00,
2013-02-15 18:31:00,57.0,17.0,-100.00,North,-999,-999.0,-999.0,21,-99.99,,,-99.99,,2013-02-16 02:31:00,
2013-02-15 18:42:00,57.0,17.0,-100.00,North,-999,-999.0,-999.0,21,-99.99,,,-99.99,,2013-02-16 02:42:00,
2013-02-15 18:52:00,57.0,17.0,-100.00,North,-999,-999.0,-999.0,21,-99.99,,,-99.99,,2013-02-16 02:52:00,
2013-02-15 19:01:00,47.0,20.0,-100.00,North,-999,-999.0,-999.0,34,-99.99,,,-99.99,,2013-02-16 03:01:00,
2013-02-15 19:11:00,47.0,20.0,-100.00,North,-999,-999.0,-999.0,34,-99.99,,,-99.99,,2013-02-16 03:11:00,
2013-02-15 19:21:00,47.0,20.0,-100.00,North,-999,-999.0,-999.0,34,-99.99,,,-99.99,,2013-02-16 03:21:00,
2013-02-15 20:01:00,42.0,22.0,-100.00,North,-999,-999.0,-999.0,44,-99.99,,,-99.99,,2013-02-16 04:01:00,
2013-02-15 20:31:00,38.0,20.0,-100.00,North,-999,-999.0,-999.0,47,-99.99,,,-99.99,,2013-02-16 04:31:00,
2013-02-15 20:42:00,38.0,20.0,-100.00,North,-999,-999.0,-999.0,47,-99.99,,,-99.99,,2013-02-16 04:42:00,
2013-02-15 20:52:00,38.0,20.0,-100.00,North,-999,-999.0,-999.0,47,-99.99,,,-99.99,,2013-02-16 04:52:00,
2013-02-15 21:01:00,38.0,20.0,-100.00,North,-999,-999.0,-999.0,47,-99.99,,,-99.99,,2013-02-16 05:01:00,
2013-02-15 21:32:00,35.0,20.0,-100.00,North,-999,-999.0,-999.0,55,-99.99,,,-99.99,,2013-02-16 05:32:00,
2013-02-15 21:42:00,35.0,20.0,-100.00,North,-999,-999.0,-999.0,55,-99.99,,,-99.99,,2013-02-16 05:42:00,
2013-02-15 21:52:00,35.0,20.0,-100.00,North,-999,-999.0,-999.0,55,-99.99,,,-99.99,,2013-02-16 05:52:00,
2013-02-15 22:01:00,35.0,21.0,-100.00,North,-999,-999.0,-999.0,57,-99.99,,,-99.99,,2013-02-16 06:01:00,
2013-02-15 22:11:00,35.0,21.0,-100.00,North,-999,-999.0,-999.0,57,-99.99,,,-99.99,,2013-02-16 06:11:00,
2013-02-15 22:21:00,35.0,21.0,-100.00,North,-999,-999.0,-999.0,57,-99.99,,,-99.99,,2013-02-16 06:21:00,
2013-02-15 22:32:00,32.0,22.0,-100.00,North,-999,-999.0,-999.0,66,-99.99,,,-99.99,,2013-02-16 06:32:00,
2013-02-15 22:42:00,32.0,22.0,-100.00,North,-999,-999.0,-999.0,66,-99.99,,,-99.99,,2013-02-16 06:42:00,
2013-02-15 22:52:00,32.0,22.0,-100.00,North,-999,-999.0,-999.0,66,-99.99,,,-99.99,,2013-02-16 06:52:00,
2013-02-15 23:02:00,33.0,22.0,-100.00,North,-999,-999.0,-999.0,64,-99.99,,,-99.99,,2013-02-16 07:02:00,
2013-02-15 23:11:00,33.0,22.0,-100.00,North,-999,-999.0,-999.0,64,-99.99,,,-99.99,,2013-02-16 07:11:00,
2013-02-15 23:21:00,33.0,22.0,-100.00,North,-999,-999.0,-999.0,64,-99.99,,,-99.99,,2013-02-16 07:21:00,
2013-02-15 23:31:00,33.0,22.0,-100.00,North,-999,-999.0,-999.0,64,-99.99,,,-99.99,,2013-02-16 07:31:00,